Time;durP1;ratioP1;P1;durP2;ratioP2;P2;SDS_P1;SDS_P2;PMS_P1;PMS_P2;Temp;Humidity;BMP_temperature;BMP_pressure;BME280_temperature;BME280_humidity;BME280_pressure;Samples;Min_cycle;Max_cycle;Signal;HPM_P1;HPM_P2
2023/07/02 00:01:08;;;;;;;12.73;6.70;;;;;;;18.98;100.00;100625.75;5204000;28;20069;-75
2023/07/02 00:03:39;;;;;;;16.53;6.97;;;;;;;18.94;100.00;100626.19;5203783;28;20461;-71
2023/07/02 00:06:10;;;;;;;18.67;7.73;;;;;;;18.91;100.00;100624.69;5198437;28;20040;-71
2023/07/02 00:08:41;;;;;;;15.47;7.63;;;;;;;18.91;100.00;100622.03;5208046;28;20053;-71
2023/07/02 00:11:15;;;;;;;18.13;8.10;;;;;;;18.83;100.00;100617.47;5201013;28;20044;-72
2023/07/02 00:13:46;;;;;;;15.35;7.57;;;;;;;18.84;100.00;100616.50;5202703;28;20048;-72
2023/07/02 00:16:18;;;;;;;19.70;8.57;;;;;;;18.85;100.00;100617.34;5205928;28;20022;-73
2023/07/02 00:18:52;;;;;;;16.83;8.17;;;;;;;18.87;100.00;100623.31;5201324;28;20032;-72
2023/07/02 00:21:27;;;;;;;17.40;8.73;;;;;;;18.75;100.00;100598.84;5198108;28;20022;-72
2023/07/02 00:24:00;;;;;;;16.67;8.70;;;;;;;18.72;100.00;100610.59;5217259;28;20051;-71
2023/07/02 00:26:31;;;;;;;18.50;10.70;;;;;;;18.73;100.00;100617.56;5209695;28;20067;-70
2023/07/02 00:29:04;;;;;;;17.03;9.40;;;;;;;18.70;100.00;100617.88;5212323;28;20113;-73
2023/07/02 00:31:36;;;;;;;13.67;9.43;;;;;;;18.76;100.00;100612.94;5207685;28;20015;-71
2023/07/02 00:34:07;;;;;;;17.97;9.73;;;;;;;18.70;100.00;100611.72;5216029;28;20087;-72
2023/07/02 00:36:38;;;;;;;17.43;10.47;;;;;;;18.67;100.00;100612.03;5217811;28;20041;-71
2023/07/02 00:39:11;;;;;;;18.50;10.67;;;;;;;18.59;100.00;100602.16;5219970;28;20038;-72
2023/07/02 00:41:46;;;;;;;21.50;11.43;;;;;;;18.64;100.00;100596.41;5221433;28;20731;-70
2023/07/02 00:44:17;;;;;;;19.02;10.20;;;;;;;18.68;100.00;100601.25;5219829;28;20022;-71
2023/07/02 00:46:48;;;;;;;20.17;10.53;;;;;;;18.59;100.00;100595.03;5210716;28;20034;-71
2023/07/02 00:49:20;;;;;;;21.17;12.03;;;;;;;18.62;100.00;100604.53;5230069;28;20029;-73
2023/07/02 00:51:51;;;;;;;21.97;11.33;;;;;;;18.62;100.00;100609.84;5218497;28;20033;-71
2023/07/02 00:54:22;;;;;;;19.33;11.30;;;;;;;18.59;100.00;100626.88;5213856;28;20100;-72
2023/07/02 00:56:54;;;;;;;21.00;11.37;;;;;;;18.54;100.00;100623.84;5213200;28;20022;-71
2023/07/02 00:59:26;;;;;;;18.03;11.00;;;;;;;18.48;100.00;100619.97;5285936;28;20026;-72
2023/07/02 01:01:57;;;;;;;26.57;11.77;;;;;;;18.38;100.00;100604.13;5215168;28;20030;-70
2023/07/02 01:04:29;;;;;;;26.00;13.07;;;;;;;18.50;100.00;100633.91;5208544;28;20121;-70
2023/07/02 01:07:00;;;;;;;23.23;12.93;;;;;;;18.46;100.00;100627.25;5208622;28;20041;-72
2023/07/02 01:09:31;;;;;;;22.83;12.67;;;;;;;18.36;100.00;100632.59;5287568;28;20026;-71
2023/07/02 01:12:08;;;;;;;25.57;14.43;;;;;;;18.50;100.00;100638.41;5207963;28;20027;-72
2023/07/02 01:14:43;;;;;;;26.33;13.43;;;;;;;18.48;100.00;100630.56;5254067;28;20058;-73
2023/07/02 01:17:18;;;;;;;26.27;13.33;;;;;;;18.35;100.00;100628.28;5242094;28;20030;-71
2023/07/02 01:19:53;;;;;;;20.77;13.07;;;;;;;18.42;100.00;100630.34;5206103;28;20077;-71
2023/07/02 01:22:26;;;;;;;23.60;13.73;;;;;;;18.34;100.00;100642.53;5281591;28;20072;-71
2023/07/02 01:24:58;;;;;;;23.20;13.60;;;;;;;18.25;100.00;100640.75;5213631;28;20042;-73
2023/07/02 01:27:30;;;;;;;23.40;13.40;;;;;;;18.32;100.00;100644.50;5286125;28;20023;-72
2023/07/02 01:30:01;;;;;;;22.30;13.17;;;;;;;18.32;100.00;100647.16;5213419;28;20025;-72
2023/07/02 01:32:33;;;;;;;25.73;14.50;;;;;;;18.29;100.00;100650.09;5212273;28;20033;-73
2023/07/02 01:35:04;;;;;;;26.93;14.20;;;;;;;18.29;100.00;100647.44;5212007;28;20029;-72
2023/07/02 01:37:37;;;;;;;24.03;14.77;;;;;;;18.26;100.00;100650.38;5211189;28;20666;-71
2023/07/02 01:40:08;;;;;;;26.47;15.47;;;;;;;18.28;100.00;100651.06;5212843;28;20037;-71
2023/07/02 01:42:40;;;;;;;21.87;14.10;;;;;;;18.35;100.00;100652.16;5212321;28;20018;-71
2023/07/02 01:45:11;;;;;;;26.63;14.77;;;;;;;18.28;100.00;100645.75;5212568;28;20056;-71
2023/07/02 01:47:42;;;;;;;26.47;15.30;;;;;;;18.29;100.00;100641.31;5212270;28;20040;-73
2023/07/02 01:50:14;;;;;;;23.43;14.97;;;;;;;18.33;100.00;100654.09;5211034;28;20026;-72
2023/07/02 01:52:45;;;;;;;27.67;16.10;;;;;;;18.20;100.00;100651.81;5211125;28;20118;-72
2023/07/02 01:55:17;;;;;;;30.70;16.40;;;;;;;18.25;100.00;100656.66;5212226;28;20018;-71
2023/07/02 01:57:48;;;;;;;29.00;16.67;;;;;;;18.25;100.00;100646.06;5210656;28;20021;-73
2023/07/02 02:00:20;;;;;;;31.00;18.03;;;;;;;18.20;100.00;100662.41;5212283;28;20052;-72
2023/07/02 02:02:51;;;;;;;24.53;15.17;;;;;;;18.24;100.00;100657.63;5212053;28;20024;-73
2023/07/02 02:05:22;;;;;;;33.93;18.23;;;;;;;18.24;100.00;100654.97;5211792;28;20045;-74
2023/07/02 02:07:54;;;;;;;30.07;18.63;;;;;;;18.14;100.00;100666.47;5274080;28;20027;-74
2023/07/02 02:10:25;;;;;;;28.50;17.20;;;;;;;18.09;100.00;100668.69;5223059;28;20110;-70
2023/07/02 02:12:56;;;;;;;30.67;15.97;;;;;;;18.14;100.00;100655.88;5211397;28;20026;-75
2023/07/02 02:15:28;;;;;;;34.07;19.40;;;;;;;18.19;100.00;100662.53;5211915;28;20014;-72
2023/07/02 02:17:59;;;;;;;27.73;16.67;;;;;;;18.15;100.00;100656.72;5263415;28;20263;-71
2023/07/02 02:20:30;;;;;;;32.47;18.67;;;;;;;18.09;100.00;100663.41;5304551;28;20120;-71
2023/07/02 02:23:02;;;;;;;29.33;17.60;;;;;;;18.11;100.00;100664.09;5261177;28;20093;-71
2023/07/02 02:25:33;;;;;;;27.47;17.53;;;;;;;18.12;100.00;100663.09;5244995;28;20026;-71
2023/07/02 02:28:05;;;;;;;29.40;17.17;;;;;;;18.13;100.00;100663.94;5210403;28;20026;-74
2023/07/02 02:30:36;;;;;;;27.53;17.73;;;;;;;18.12;100.00;100668.41;5211461;28;20048;-71
2023/07/02 02:33:07;;;;;;;33.13;18.23;;;;;;;18.10;100.00;100667.72;5211889;28;20049;-72
2023/07/02 02:35:38;;;;;;;30.73;19.37;;;;;;;18.01;100.00;100669.41;5210324;28;20055;-73
2023/07/02 02:38:10;;;;;;;27.77;17.73;;;;;;;17.96;100.00;100676.97;5209949;28;20133;-71
2023/07/02 02:40:42;;;;;;;33.03;19.30;;;;;;;17.96;100.00;100673.50;5209974;28;20025;-71
2023/07/02 02:43:13;;;;;;;32.97;18.97;;;;;;;17.94;100.00;100671.00;5210983;28;20125;-71
2023/07/02 02:45:44;;;;;;;29.87;18.60;;;;;;;17.92;100.00;100669.47;5284009;28;20451;-71
2023/07/02 02:48:16;;;;;;;36.77;19.10;;;;;;;17.95;100.00;100677.13;5211374;28;20038;-72
2023/07/02 02:50:47;;;;;;;32.80;19.23;;;;;;;17.81;100.00;100687.19;5282898;28;20032;-74
2023/07/02 02:53:18;;;;;;;29.37;19.37;;;;;;;17.84;100.00;100689.56;5196081;28;20030;-72
2023/07/02 02:55:49;;;;;;;34.43;17.67;;;;;;;17.74;100.00;100670.22;5210764;28;20528;-72
2023/07/02 02:58:22;;;;;;;31.00;19.03;;;;;;;17.89;100.00;100689.16;5211394;28;20075;-72
2023/07/02 03:00:54;;;;;;;28.67;18.00;;;;;;;17.85;100.00;100688.59;5210989;28;20043;-71
2023/07/02 03:03:25;;;;;;;27.57;18.23;;;;;;;17.74;100.00;100696.69;5211425;28;20157;-71
2023/07/02 03:05:56;;;;;;;31.77;19.60;;;;;;;17.47;100.00;100685.06;5207953;28;20033;-76
2023/07/02 03:08:28;;;;;;;29.90;17.73;;;;;;;17.68;100.00;100705.22;5211246;28;20022;-73
2023/07/02 03:10:59;;;;;;;32.87;19.10;;;;;;;17.78;100.00;100706.03;5211301;28;20025;-75
2023/07/02 03:13:30;;;;;;;30.30;18.17;;;;;;;17.75;100.00;100708.97;5230921;28;20032;-71
2023/07/02 03:16:02;;;;;;;28.43;18.03;;;;;;;17.63;100.00;100710.94;5210906;28;20495;-72
2023/07/02 03:18:34;;;;;;;33.27;19.40;;;;;;;17.59;100.00;100709.56;5210632;28;20038;-72
2023/07/02 03:21:05;;;;;;;26.60;17.50;;;;;;;17.63;100.00;100717.06;5248707;28;20501;-72
2023/07/02 03:23:36;;;;;;;31.17;18.37;;;;;;;17.62;100.00;100710.09;5244260;28;20105;-75
2023/07/02 03:26:08;;;;;;;35.10;18.87;;;;;;;17.62;100.00;100715.41;5211070;28;20051;-72
2023/07/02 03:28:39;;;;;;;36.80;20.47;;;;;;;17.59;100.00;100723.63;5210540;28;20034;-76
2023/07/02 03:31:10;;;;;;;29.00;18.17;;;;;;;17.58;100.00;100721.09;5209556;28;20032;-70
2023/07/02 03:33:41;;;;;;;31.30;18.50;;;;;;;17.52;100.00;100719.88;5226240;28;20033;-71
2023/07/02 03:36:13;;;;;;;32.80;18.60;;;;;;;17.50;100.00;100721.81;5209980;28;20033;-72
2023/07/02 03:38:44;;;;;;;30.00;18.63;;;;;;;17.51;100.00;100716.38;5210410;28;20137;-71
2023/07/02 03:41:15;;;;;;;32.67;18.90;;;;;;;17.44;100.00;100733.81;5237389;28;20031;-71
2023/07/02 03:43:47;;;;;;;29.33;17.73;;;;;;;17.56;100.00;100736.31;5254276;28;20030;-71
2023/07/02 03:46:19;;;;;;;32.40;18.73;;;;;;;17.46;100.00;100723.06;5210244;28;20022;-72
2023/07/02 03:48:50;;;;;;;31.13;17.50;;;;;;;17.48;100.00;100729.06;5210695;28;20033;-72
2023/07/02 03:51:21;;;;;;;29.23;16.37;;;;;;;17.42;100.00;100726.00;5209499;28;20511;-71
2023/07/02 03:53:52;;;;;;;29.30;17.47;;;;;;;17.33;100.00;100733.97;5269738;28;20038;-75
2023/07/02 03:56:24;;;;;;;29.10;16.33;;;;;;;17.46;100.00;100741.59;5227080;28;20029;-70
2023/07/02 03:58:55;;;;;;;38.23;16.40;;;;;;;17.37;100.00;100728.25;5271224;28;20027;-72
2023/07/02 04:01:27;;;;;;;25.30;15.03;;;;;;;17.48;100.00;100740.50;5228519;28;20025;-72
2023/07/02 04:03:58;;;;;;;27.37;15.00;;;;;;;17.50;100.00;100749.16;5229463;28;20041;-72
2023/07/02 04:06:29;;;;;;;27.47;15.60;;;;;;;17.42;100.00;100751.63;5212666;28;20075;-72
2023/07/02 04:09:00;;;;;;;27.67;15.27;;;;;;;17.42;100.00;100747.19;5214279;28;20566;-72
2023/07/02 04:11:32;;;;;;;31.90;15.97;;;;;;;17.45;100.00;100742.59;5213472;28;20061;-71
2023/07/02 04:14:03;;;;;;;22.60;14.40;;;;;;;17.46;100.00;100739.81;5233860;28;20069;-73
2023/07/02 04:16:34;;;;;;;27.73;15.43;;;;;;;17.36;100.00;100739.81;5213322;28;20109;-74
2023/07/02 04:19:06;;;;;;;28.80;16.87;;;;;;;17.31;100.00;100734.09;5213623;28;20118;-73
2023/07/02 04:21:37;;;;;;;26.90;14.97;;;;;;;17.17;100.00;100730.88;5211676;28;20022;-72
2023/07/02 04:24:08;;;;;;;28.97;15.50;;;;;;;17.22;100.00;100756.09;5213395;28;20026;-72
2023/07/02 04:26:42;;;;;;;32.00;16.27;;;;;;;17.27;100.00;100759.16;5213677;28;20571;-72
2023/07/02 04:29:13;;;;;;;22.25;14.38;;;;;;;17.28;100.00;100761.66;5236981;28;20015;-72
2023/07/02 04:31:45;;;;;;;28.53;15.37;;;;;;;17.27;100.00;100757.34;5262782;28;20026;-73
2023/07/02 04:34:16;;;;;;;24.60;15.73;;;;;;;17.09;100.00;100746.56;5213455;28;20022;-71
2023/07/02 04:36:47;;;;;;;23.67;13.40;;;;;;;17.22;100.00;100761.38;5210950;28;20029;-72
2023/07/02 04:39:19;;;;;;;22.83;14.00;;;;;;;17.18;100.00;100760.81;5303352;28;20024;-72
2023/07/02 04:41:52;;;;;;;22.23;14.40;;;;;;;17.11;100.00;100759.69;5267524;28;20022;-71
2023/07/02 04:44:29;;;;;;;29.23;14.53;;;;;;;17.24;100.00;100764.75;5213867;28;20018;-71
2023/07/02 04:47:01;;;;;;;25.80;14.37;;;;;;;17.24;100.00;100765.59;5214191;28;20033;-71
2023/07/02 04:49:32;;;;;;;21.20;13.10;;;;;;;17.20;100.00;100768.63;5270876;28;20037;-72
2023/07/02 04:52:04;;;;;;;24.10;13.70;;;;;;;17.24;100.00;100770.88;5215186;28;20431;-70
2023/07/02 04:54:35;;;;;;;25.77;13.27;;;;;;;17.21;100.00;100765.84;5211549;28;20034;-71
2023/07/02 04:57:07;;;;;;;27.37;13.50;;;;;;;17.28;100.00;100776.69;5203724;28;20030;-71
2023/07/02 04:59:38;;;;;;;25.03;13.37;;;;;;;17.35;100.00;100783.13;5216541;28;20026;-73
2023/07/02 05:02:10;;;;;;;27.53;15.20;;;;;;;17.31;100.00;100779.09;5215882;28;20030;-72
2023/07/02 05:04:41;;;;;;;27.13;14.83;;;;;;;17.38;100.00;100777.56;5286712;28;20035;-70
2023/07/02 05:07:12;;;;;;;27.63;14.97;;;;;;;17.42;100.00;100781.59;5213906;28;20086;-71
2023/07/02 05:09:44;;;;;;;27.60;14.03;;;;;;;17.49;100.00;100786.34;5211147;28;20041;-73
2023/07/02 05:12:15;;;;;;;21.77;13.37;;;;;;;17.50;98.16;100786.22;5202121;28;20491;-75
2023/07/02 05:14:46;;;;;;;20.00;12.07;;;;;;;17.53;96.99;100785.09;5212913;28;20149;-73
2023/07/02 05:17:18;;;;;;;24.37;12.47;;;;;;;17.54;93.39;100792.06;5213113;28;20075;-72
2023/07/02 05:19:49;;;;;;;27.07;12.40;;;;;;;17.56;94.58;100797.22;5269407;28;20440;-73
2023/07/02 05:22:20;;;;;;;24.87;11.40;;;;;;;17.60;91.70;100803.91;5227710;28;20030;-74
2023/07/02 05:24:52;;;;;;;24.43;11.30;;;;;;;17.60;90.73;100806.53;5213049;28;20075;-72
2023/07/02 05:27:23;;;;;;;21.03;10.53;;;;;;;17.58;90.08;100809.34;5212836;28;20126;-71
2023/07/02 05:29:54;;;;;;;27.20;11.97;;;;;;;17.85;86.05;100810.44;5211575;28;20421;-71
2023/07/02 05:32:26;;;;;;;20.50;10.40;;;;;;;17.76;87.61;100804.19;5285186;28;20052;-74
2023/07/02 05:34:57;;;;;;;20.77;11.13;;;;;;;17.78;84.45;100817.28;5211592;28;20484;-72
2023/07/02 05:37:28;;;;;;;20.03;10.33;;;;;;;17.71;84.43;100805.56;5211825;28;20535;-71
2023/07/02 05:39:59;;;;;;;17.20;9.10;;;;;;;17.82;83.48;100813.34;5211258;28;20387;-70
2023/07/02 05:42:31;;;;;;;24.63;11.50;;;;;;;17.81;83.43;100817.00;5212225;28;20022;-74
2023/07/02 05:45:02;;;;;;;19.83;11.40;;;;;;;17.90;82.36;100823.25;5212137;28;20546;-72
2023/07/02 05:47:34;;;;;;;20.47;10.80;;;;;;;17.99;80.78;100826.88;5211962;28;20068;-73
2023/07/02 05:50:07;;;;;;;24.30;10.40;;;;;;;18.04;79.43;100829.94;5207044;28;20125;-71
2023/07/02 05:52:38;;;;;;;21.77;11.00;;;;;;;17.98;81.28;100833.13;5206789;28;20107;-71
2023/07/02 05:55:10;;;;;;;20.80;10.97;;;;;;;17.98;83.12;100826.03;5204531;28;20057;-71
2023/07/02 05:57:41;;;;;;;20.27;9.80;;;;;;;18.11;79.02;100839.00;5207105;28;20028;-73
2023/07/02 06:00:13;;;;;;;21.77;9.23;;;;;;;18.09;78.58;100822.41;5204797;28;20146;-72
2023/07/02 06:02:47;;;;;;;21.43;9.00;;;;;;;18.22;79.85;100830.06;5211190;28;20083;-73
2023/07/02 06:05:19;;;;;;;20.00;9.53;;;;;;;18.11;76.11;100833.72;5203894;28;20026;-74
2023/07/02 06:07:50;;;;;;;20.97;9.97;;;;;;;18.29;77.23;100833.00;5205359;28;20041;-73
2023/07/02 06:10:21;;;;;;;17.83;8.33;;;;;;;18.34;75.56;100841.38;5204346;28;20026;-71
2023/07/02 06:12:53;;;;;;;20.47;8.90;;;;;;;18.36;76.71;100834.09;5211648;28;20037;-71
2023/07/02 06:15:24;;;;;;;20.13;9.97;;;;;;;18.51;75.03;100846.88;5208033;28;20033;-72
2023/07/02 06:17:55;;;;;;;21.03;9.57;;;;;;;18.55;76.65;100842.97;5259767;28;20644;-72
2023/07/02 06:20:27;;;;;;;20.83;8.93;;;;;;;18.50;74.91;100847.88;5305920;28;20032;-74
2023/07/02 06:22:58;;;;;;;22.10;9.67;;;;;;;18.58;74.37;100852.44;5212340;28;20033;-71
2023/07/02 06:25:29;;;;;;;24.47;10.13;;;;;;;18.65;74.97;100850.03;5283514;28;20026;-72
2023/07/02 06:28:00;;;;;;;18.07;8.67;;;;;;;18.69;74.81;100846.13;5255762;28;20020;-71
2023/07/02 06:30:32;;;;;;;16.67;7.47;;;;;;;18.85;73.86;100856.94;5239669;28;20173;-72
2023/07/02 06:33:03;;;;;;;17.13;8.47;;;;;;;18.98;72.77;100853.97;5244963;28;20055;-72
2023/07/02 06:35:35;;;;;;;18.63;8.47;;;;;;;18.93;70.95;100866.00;5235127;28;20022;-73
2023/07/02 06:38:06;;;;;;;15.80;8.13;;;;;;;19.03;72.51;100872.09;5211274;28;20041;-72
2023/07/02 06:40:37;;;;;;;15.70;7.87;;;;;;;19.11;72.65;100863.44;5212886;28;20057;-72
2023/07/02 06:43:09;;;;;;;22.77;9.07;;;;;;;19.12;73.72;100854.47;5282397;28;20151;-71
2023/07/02 06:45:40;;;;;;;17.87;8.43;;;;;;;19.24;68.23;100873.69;5211382;28;20479;-72
2023/07/02 06:48:12;;;;;;;17.40;7.67;;;;;;;19.12;69.03;100858.94;5211341;28;20048;-74
2023/07/02 06:50:45;;;;;;;19.13;8.27;;;;;;;19.20;69.28;100861.72;5209277;28;20121;-71
2023/07/02 06:53:16;;;;;;;16.57;7.80;;;;;;;19.23;69.30;100866.72;5211658;28;20025;-72
2023/07/02 06:55:47;;;;;;;18.47;8.53;;;;;;;19.33;67.80;100871.97;5210986;28;20479;-72
2023/07/02 06:58:19;;;;;;;18.33;8.23;;;;;;;19.45;69.41;100875.22;5211278;28;20101;-72
2023/07/02 07:00:51;;;;;;;18.13;8.43;;;;;;;19.61;69.36;100890.50;5226271;28;20441;-71
2023/07/02 07:03:22;;;;;;;19.00;7.90;;;;;;;19.69;68.71;100887.06;5211517;28;20014;-73
2023/07/02 07:05:53;;;;;;;19.33;8.33;;;;;;;19.73;67.32;100888.47;5210050;28;20021;-72
2023/07/02 07:08:24;;;;;;;14.77;7.63;;;;;;;19.71;68.35;100878.00;5211464;28;20022;-72
2023/07/02 07:10:56;;;;;;;16.70;7.67;;;;;;;19.86;65.12;100889.91;5210878;28;20033;-72
2023/07/02 07:13:27;;;;;;;21.60;8.37;;;;;;;19.94;65.94;100900.59;5210410;28;20024;-76
2023/07/02 07:15:58;;;;;;;20.50;7.77;;;;;;;20.05;64.76;100896.91;5211505;28;20500;-72
2023/07/02 07:18:30;;;;;;;17.17;6.93;;;;;;;20.09;63.63;100892.94;5208974;28;20121;-72
2023/07/02 07:21:01;;;;;;;18.93;6.80;;;;;;;20.21;61.01;100901.53;5210205;28;20430;-72
2023/07/02 07:23:32;;;;;;;17.37;7.53;;;;;;;20.37;62.74;100910.63;5210762;28;20071;-74
2023/07/02 07:26:04;;;;;;;17.50;6.83;;;;;;;20.53;60.70;100900.06;5210771;28;20132;-72
2023/07/02 07:28:35;;;;;;;14.80;6.57;;;;;;;20.53;57.20;100907.22;5209039;28;20404;-71
2023/07/02 07:31:06;;;;;;;14.67;6.90;;;;;;;20.61;57.53;100920.59;5210695;28;20057;-71
2023/07/02 07:33:38;;;;;;;16.43;6.90;;;;;;;20.68;58.80;100916.28;5210721;28;20483;-73
2023/07/02 07:36:09;;;;;;;19.07;7.13;;;;;;;20.80;59.27;100927.50;5209638;28;20414;-72
2023/07/02 07:38:43;;;;;;;16.73;6.67;;;;;;;21.05;59.65;100936.66;5208654;28;20507;-72
2023/07/02 07:41:15;;;;;;;14.53;6.97;;;;;;;21.29;57.80;100930.59;5211093;28;20132;-72
2023/07/02 07:43:46;;;;;;;15.77;6.97;;;;;;;21.28;56.92;100934.22;5211765;28;20122;-73
2023/07/02 07:46:19;;;;;;;12.52;6.47;;;;;;;21.54;56.42;100940.47;5205896;28;20113;-75
2023/07/02 07:48:50;;;;;;;13.93;6.83;;;;;;;21.56;55.65;100946.47;5198295;28;20377;-72
2023/07/02 07:51:21;;;;;;;14.97;6.80;;;;;;;21.56;52.22;100946.47;5193052;28;20072;-73
2023/07/02 07:53:53;;;;;;;14.73;6.80;;;;;;;21.60;56.06;100948.66;5195389;28;20062;-75
2023/07/02 07:56:24;;;;;;;14.82;7.15;;;;;;;21.60;53.38;100945.16;5298624;28;20388;-72
2023/07/02 07:58:55;;;;;;;18.00;7.82;;;;;;;21.62;55.16;100945.81;5201342;28;20032;-72
2023/07/02 08:01:28;;;;;;;15.85;6.85;;;;;;;21.85;53.44;100945.25;5200685;28;20048;-73
2023/07/02 08:03:59;;;;;;;14.65;6.47;;;;;;;21.92;49.48;100948.06;5205226;28;20866;-74
2023/07/02 08:06:31;;;;;;;16.77;6.40;;;;;;;22.03;49.60;100930.94;5200875;28;20054;-72
2023/07/02 08:09:03;;;;;;;14.68;6.70;;;;;;;22.29;47.04;100929.91;5256861;28;20626;-72
2023/07/02 08:11:34;;;;;;;13.93;5.85;;;;;;;22.48;47.05;100934.88;5203802;28;20026;-71
2023/07/02 08:14:05;;;;;;;14.80;5.65;;;;;;;22.41;46.35;100941.88;5196494;28;20487;-72
2023/07/02 08:16:37;;;;;;;15.23;6.80;;;;;;;22.35;48.77;100945.25;5262622;28;20436;-71
2023/07/02 08:19:08;;;;;;;19.73;7.00;;;;;;;22.41;48.77;100933.88;5214243;28;20074;-72
2023/07/02 08:21:39;;;;;;;14.38;6.80;;;;;;;22.21;46.69;100950.25;5209883;28;20558;-72
2023/07/02 08:24:11;;;;;;;12.45;5.75;;;;;;;22.21;47.53;100955.59;5210106;28;20032;-74
2023/07/02 08:26:42;;;;;;;15.55;7.18;;;;;;;21.96;46.45;100955.56;5209543;28;20025;-72
2023/07/02 08:29:13;;;;;;;11.70;5.97;;;;;;;21.98;47.71;100963.41;5233348;28;20024;-75
2023/07/02 08:31:45;;;;;;;13.05;6.95;;;;;;;22.00;47.26;100975.59;5259981;28;20029;-73
2023/07/02 08:34:16;;;;;;;15.25;6.20;;;;;;;22.06;47.68;100967.91;5282917;28;20036;-72
2023/07/02 08:36:47;;;;;;;16.02;7.75;;;;;;;22.16;48.21;100957.94;5212204;28;20473;-76
2023/07/02 08:39:19;;;;;;;10.75;6.13;;;;;;;22.22;47.99;100959.91;5212149;28;20034;-71
2023/07/02 08:41:50;;;;;;;10.07;5.47;;;;;;;22.10;47.28;100971.91;5213627;28;20037;-73
2023/07/02 08:44:24;;;;;;;11.63;5.65;;;;;;;22.11;46.12;100976.25;5216786;28;20038;-75
2023/07/02 08:46:56;;;;;;;18.50;6.75;;;;;;;22.06;45.54;100973.25;5256557;28;20023;-74
2023/07/02 08:49:28;;;;;;;12.55;6.18;;;;;;;22.27;45.60;100977.25;5214079;28;20149;-72
2023/07/02 08:52:00;;;;;;;11.10;6.55;;;;;;;22.43;45.48;100979.91;5206449;28;20067;-73
2023/07/02 08:54:31;;;;;;;9.70;5.78;;;;;;;22.38;43.39;100976.91;5208364;28;20132;-72
2023/07/02 08:57:05;;;;;;;12.75;6.22;;;;;;;22.32;43.94;100982.94;5302889;27;20083;-73
2023/07/02 08:59:36;;;;;;;9.80;5.32;;;;;;;22.52;42.52;100982.56;5209905;28;20384;-73
2023/07/02 09:02:07;;;;;;;10.82;5.80;;;;;;;22.64;42.64;100969.78;5196297;28;20033;-72
2023/07/02 09:04:39;;;;;;;9.55;6.13;;;;;;;22.76;40.91;100975.59;5311441;27;20074;-74
2023/07/02 09:07:10;;;;;;;11.60;6.45;;;;;;;22.93;41.58;100974.56;5201047;28;20031;-74
2023/07/02 09:09:46;;;;;;;14.23;6.38;;;;;;;23.47;42.54;100979.38;5207003;28;20037;-75
2023/07/02 09:12:32;;;;;;;12.48;5.97;;;;;;;24.08;42.42;100959.94;5304383;27;20473;-73
2023/07/02 09:15:06;;;;;;;13.40;5.90;;;;;;;23.78;39.73;100973.19;5210583;28;20036;-73
2023/07/02 09:17:37;;;;;;;;;;;;;;;24.57;41.69;100981.13;5213315;28;20022;-74
2023/07/02 09:20:09;;;;;;;11.68;5.63;;;;;;;23.79;40.50;100977.53;5209455;28;19924;-72
2023/07/02 09:22:41;;;;;;;14.95;6.93;;;;;;;23.74;40.11;100970.03;5209439;28;20026;-74
2023/07/02 09:25:12;;;;;;;12.73;6.15;;;;;;;24.36;37.66;100962.09;5211011;28;20097;-74
2023/07/02 09:27:43;;;;;;;12.05;5.93;;;;;;;24.46;37.28;100966.31;5201548;28;20031;-73
2023/07/02 09:30:15;;;;;;;12.45;6.88;;;;;;;24.49;37.53;100971.34;5235257;28;20062;-73
2023/07/02 09:32:47;;;;;;;12.77;5.78;;;;;;;24.16;38.24;100972.41;5243744;28;20110;-74
2023/07/02 09:35:18;;;;;;;13.15;6.47;;;;;;;24.36;37.77;100975.47;5203536;28;20026;-75
2023/07/02 09:37:50;;;;;;;10.50;5.70;;;;;;;24.47;37.59;100973.38;5223269;28;20070;-74
2023/07/02 09:40:24;;;;;;;11.95;6.13;;;;;;;24.36;38.50;100972.78;5203148;28;20026;-74
2023/07/02 09:42:57;;;;;;;11.20;6.22;;;;;;;24.38;37.30;100965.38;5206111;28;20068;-74
2023/07/02 09:45:29;;;;;;;13.98;6.07;;;;;;;24.21;38.75;100975.41;5197534;28;20033;-74
2023/07/02 09:48:02;;;;;;;13.13;6.10;;;;;;;24.16;39.76;100981.28;5201545;28;20027;-75
2023/07/02 09:50:34;;;;;;;12.00;6.45;;;;;;;24.15;38.60;100973.44;5207748;28;20061;-71
2023/07/02 09:53:06;;;;;;;10.57;6.03;;;;;;;23.97;39.29;100974.56;5202664;28;20049;-74
2023/07/02 09:55:39;;;;;;;14.93;7.20;;;;;;;24.22;39.58;100977.09;5212106;28;20045;-74
2023/07/02 09:58:11;;;;;;;12.93;5.53;;;;;;;24.10;39.24;100979.31;5202154;28;20031;-74
2023/07/02 10:00:43;;;;;;;13.63;6.15;;;;;;;24.19;40.46;100981.97;5210901;28;20029;-73
2023/07/02 10:03:14;;;;;;;10.43;5.85;;;;;;;24.04;40.81;100991.56;5208840;28;20026;-72
2023/07/02 10:05:45;;;;;;;11.50;6.45;;;;;;;24.23;40.08;100984.09;5207549;28;20812;-75
2023/07/02 10:08:18;;;;;;;16.08;6.97;;;;;;;24.53;41.00;100983.31;5210885;28;20018;-73
2023/07/02 10:10:49;;;;;;;12.85;7.13;;;;;;;24.76;39.92;100998.50;5211715;28;20034;-73
2023/07/02 10:13:27;;;;;;;13.55;5.90;;;;;;;24.78;39.59;100980.41;5211420;28;20546;-72
2023/07/02 10:16:02;;;;;;;11.02;5.88;;;;;;;24.57;40.62;101000.69;5197467;28;20022;-73
2023/07/02 10:18:34;;;;;;;12.65;6.07;;;;;;;24.31;40.85;101001.94;5211089;28;20026;-76
2023/07/02 10:21:16;;;;;;;14.27;7.40;;;;;;;24.69;41.88;101005.59;5211256;28;20431;-73
2023/07/02 10:23:47;;;;;;;13.02;6.80;;;;;;;24.20;41.26;100991.63;5292075;28;20615;-74
2023/07/02 10:26:19;;;;;;;13.20;6.20;;;;;;;23.83;41.79;101005.56;5268493;28;20037;-73
2023/07/02 10:29:00;;;;;;;11.52;6.18;;;;;;;24.39;41.71;100999.19;5208823;28;20033;-73
2023/07/02 10:31:32;;;;;;;13.10;6.03;;;;;;;24.02;41.37;100998.94;5209128;28;20026;-73
2023/07/02 10:34:03;;;;;;;18.17;7.95;;;;;;;25.08;41.15;100999.19;5206109;28;20031;-73
2023/07/02 10:36:34;;;;;;;11.32;5.95;;;;;;;25.00;39.34;100996.59;5208290;28;20026;-72
2023/07/02 10:39:05;;;;;;;12.80;6.80;;;;;;;25.13;38.33;100990.63;5211153;28;20065;-73
2023/07/02 10:41:37;;;;;;;16.02;6.93;;;;;;;25.06;39.84;101003.91;5207328;28;20030;-71
2023/07/02 10:44:09;;;;;;;19.92;7.25;;;;;;;25.42;40.51;101012.19;5207914;28;20483;-74
2023/07/02 10:46:47;;;;;;;17.92;6.97;;;;;;;25.06;41.09;100990.53;5206488;28;20030;-73
2023/07/02 10:49:20;;;;;;;12.48;6.53;;;;;;;24.91;39.96;101005.72;5206229;28;20535;-74
2023/07/02 10:52:03;;;;;;;17.65;7.72;;;;;;;24.97;40.44;101018.41;5207637;28;20382;-74
2023/07/02 10:54:42;;;;;;;14.00;7.63;;;;;;;24.74;39.96;101012.09;5194787;28;20030;-75
2023/07/02 10:57:16;;;;;;;14.55;7.68;;;;;;;24.49;39.84;101009.63;5205240;28;20030;-72
2023/07/02 10:59:48;;;;;;;;;;;;;;;25.44;39.93;101011.00;5197305;28;20922;-72
2023/07/02 11:02:19;;;;;;;17.80;7.85;;;;;;;24.71;43.29;101015.13;5197274;28;19953;-72
2023/07/02 11:04:50;;;;;;;15.65;8.52;;;;;;;25.16;42.13;101014.34;5196675;28;20053;-73
2023/07/02 11:07:25;;;;;;;15.50;8.30;;;;;;;25.28;41.54;101012.03;5307971;27;20090;-73
2023/07/02 11:09:56;;;;;;;15.55;7.88;;;;;;;25.66;39.91;101012.94;5198043;28;20048;-74
2023/07/02 11:12:29;;;;;;;14.20;7.90;;;;;;;25.24;38.84;101018.75;5197103;28;20062;-73
2023/07/02 11:15:20;;;;;;;17.55;9.57;;;;;;;25.11;39.80;101011.41;5205701;28;20028;-71
2023/07/02 11:17:51;;;;;;;13.55;8.10;;;;;;;24.63;40.89;101016.03;5190908;28;20087;-72
2023/07/02 11:20:33;;;;;;;16.98;9.27;;;;;;;24.95;41.08;101028.47;5197570;28;20022;-72
2023/07/02 11:23:06;;;;;;;18.60;9.60;;;;;;;24.47;42.18;101029.56;5195293;28;20102;-72
2023/07/02 11:25:37;;;;;;;14.85;8.73;;;;;;;24.14;41.78;101015.38;5197921;28;20113;-72
2023/07/02 11:28:08;;;;;;;19.70;8.68;;;;;;;24.26;42.08;101031.06;5194441;28;20109;-73
2023/07/02 11:30:45;;;;;;;19.60;9.00;;;;;;;24.19;41.62;101020.25;5198319;28;20067;-72